sensor_id;sensor_type;location;lat;lon;timestamp;P1;durP1;ratioP1;P2;durP2;ratioP2
79130;SDS011;72396;45.194;9.142;2024-03-06T00:01:57;0.90;;;0.60;;
79130;SDS011;72396;45.194;9.142;2024-03-06T00:04:22;1.13;;;0.60;;
79130;SDS011;72396;45.194;9.142;2024-03-06T00:06:48;0.90;;;0.60;;
79130;SDS011;72396;45.194;9.142;2024-03-06T00:09:13;1.85;;;0.70;;
79130;SDS011;72396;45.194;9.142;2024-03-06T00:11:39;1.55;;;0.70;;
79130;SDS011;72396;45.194;9.142;2024-03-06T00:14:05;3.17;;;0.88;;
79130;SDS011;72396;45.194;9.142;2024-03-06T00:16:33;1.67;;;0.90;;
79130;SDS011;72396;45.194;9.142;2024-03-06T00:18:59;1.27;;;0.60;;
79130;SDS011;72396;45.194;9.142;2024-03-06T00:21:24;2.30;;;0.70;;
79130;SDS011;72396;45.194;9.142;2024-03-06T00:23:50;1.75;;;0.80;;
79130;SDS011;72396;45.194;9.142;2024-03-06T00:26:15;1.58;;;0.80;;
79130;SDS011;72396;45.194;9.142;2024-03-06T00:28:40;1.35;;;0.70;;
79130;SDS011;72396;45.194;9.142;2024-03-06T00:31:06;1.33;;;0.60;;
79130;SDS011;72396;45.194;9.142;2024-03-06T00:33:31;2.08;;;0.68;;
79130;SDS011;72396;45.194;9.142;2024-03-06T00:35:57;1.40;;;0.80;;
79130;SDS011;72396;45.194;9.142;2024-03-06T00:38:22;1.13;;;0.73;;
79130;SDS011;72396;45.194;9.142;2024-03-06T00:40:48;0.65;;;0.40;;
79130;SDS011;72396;45.194;9.142;2024-03-06T00:43:13;1.20;;;0.57;;
79130;SDS011;72396;45.194;9.142;2024-03-06T00:45:38;0.88;;;0.55;;
79130;SDS011;72396;45.194;9.142;2024-03-06T00:48:04;1.15;;;0.50;;
79130;SDS011;72396;45.194;9.142;2024-03-06T00:50:30;1.20;;;0.70;;
79130;SDS011;72396;45.194;9.142;2024-03-06T00:52:55;2.33;;;0.70;;
79130;SDS011;72396;45.194;9.142;2024-03-06T00:55:20;1.17;;;0.60;;
79130;SDS011;72396;45.194;9.142;2024-03-06T00:57:46;1.50;;;0.77;;
79130;SDS011;72396;45.194;9.142;2024-03-06T01:00:11;1.67;;;0.82;;
79130;SDS011;72396;45.194;9.142;2024-03-06T01:02:37;0.85;;;0.57;;
79130;SDS011;72396;45.194;9.142;2024-03-06T01:05:03;1.75;;;0.75;;
79130;SDS011;72396;45.194;9.142;2024-03-06T01:07:29;1.83;;;0.80;;
79130;SDS011;72396;45.194;9.142;2024-03-06T01:09:55;0.88;;;0.57;;
79130;SDS011;72396;45.194;9.142;2024-03-06T01:12:22;2.17;;;0.65;;
79130;SDS011;72396;45.194;9.142;2024-03-06T01:14:48;1.40;;;0.80;;
79130;SDS011;72396;45.194;9.142;2024-03-06T01:17:13;1.48;;;0.65;;
79130;SDS011;72396;45.194;9.142;2024-03-06T01:19:39;1.30;;;0.70;;
79130;SDS011;72396;45.194;9.142;2024-03-06T01:22:04;2.10;;;0.85;;
79130;SDS011;72396;45.194;9.142;2024-03-06T01:24:29;1.17;;;0.80;;
79130;SDS011;72396;45.194;9.142;2024-03-06T01:26:55;2.08;;;0.90;;
79130;SDS011;72396;45.194;9.142;2024-03-06T01:29:20;1.70;;;0.82;;
79130;SDS011;72396;45.194;9.142;2024-03-06T01:31:45;1.90;;;0.80;;
79130;SDS011;72396;45.194;9.142;2024-03-06T01:34:11;1.30;;;0.60;;
79130;SDS011;72396;45.194;9.142;2024-03-06T01:36:37;0.55;;;0.55;;
79130;SDS011;72396;45.194;9.142;2024-03-06T01:39:02;3.10;;;0.68;;
79130;SDS011;72396;45.194;9.142;2024-03-06T01:41:28;1.05;;;0.52;;
79130;SDS011;72396;45.194;9.142;2024-03-06T01:43:53;0.68;;;0.32;;
79130;SDS011;72396;45.194;9.142;2024-03-06T01:46:18;0.68;;;0.50;;
79130;SDS011;72396;45.194;9.142;2024-03-06T01:48:44;0.60;;;0.40;;
79130;SDS011;72396;45.194;9.142;2024-03-06T01:51:10;0.55;;;0.50;;
79130;SDS011;72396;45.194;9.142;2024-03-06T01:53:36;0.65;;;0.45;;
79130;SDS011;72396;45.194;9.142;2024-03-06T01:56:03;0.40;;;0.20;;
79130;SDS011;72396;45.194;9.142;2024-03-06T01:58:29;0.50;;;0.40;;
79130;SDS011;72396;45.194;9.142;2024-03-06T02:00:55;0.73;;;0.47;;
79130;SDS011;72396;45.194;9.142;2024-03-06T02:03:22;1.10;;;0.60;;
79130;SDS011;72396;45.194;9.142;2024-03-06T02:05:52;0.40;;;0.40;;
79130;SDS011;72396;45.194;9.142;2024-03-06T02:08:18;1.02;;;0.32;;
79130;SDS011;72396;45.194;9.142;2024-03-06T02:10:44;0.50;;;0.50;;
79130;SDS011;72396;45.194;9.142;2024-03-06T02:13:09;0.45;;;0.30;;
79130;SDS011;72396;45.194;9.142;2024-03-06T02:15:35;1.35;;;0.55;;
79130;SDS011;72396;45.194;9.142;2024-03-06T02:18:04;0.82;;;0.50;;
79130;SDS011;72396;45.194;9.142;2024-03-06T02:20:30;0.30;;;0.30;;
79130;SDS011;72396;45.194;9.142;2024-03-06T02:22:55;0.68;;;0.30;;
79130;SDS011;72396;45.194;9.142;2024-03-06T02:25:21;0.63;;;0.43;;
79130;SDS011;72396;45.194;9.142;2024-03-06T02:27:46;0.45;;;0.35;;
79130;SDS011;72396;45.194;9.142;2024-03-06T02:30:13;0.65;;;0.40;;
79130;SDS011;72396;45.194;9.142;2024-03-06T02:32:38;0.80;;;0.40;;
79130;SDS011;72396;45.194;9.142;2024-03-06T02:35:04;0.98;;;0.40;;
79130;SDS011;72396;45.194;9.142;2024-03-06T02:37:33;0.40;;;0.40;;
79130;SDS011;72396;45.194;9.142;2024-03-06T02:39:59;0.45;;;0.40;;
79130;SDS011;72396;45.194;9.142;2024-03-06T02:42:26;0.90;;;0.60;;
79130;SDS011;72396;45.194;9.142;2024-03-06T02:44:52;0.82;;;0.43;;
79130;SDS011;72396;45.194;9.142;2024-03-06T02:47:18;0.98;;;0.60;;
79130;SDS011;72396;45.194;9.142;2024-03-06T02:49:44;0.93;;;0.50;;
79130;SDS011;72396;45.194;9.142;2024-03-06T02:52:10;0.52;;;0.28;;
79130;SDS011;72396;45.194;9.142;2024-03-06T02:54:35;0.45;;;0.38;;
79130;SDS011;72396;45.194;9.142;2024-03-06T02:57:01;2.90;;;0.43;;
79130;SDS011;72396;45.194;9.142;2024-03-06T02:59:26;0.65;;;0.40;;
79130;SDS011;72396;45.194;9.142;2024-03-06T03:01:52;0.50;;;0.35;;
79130;SDS011;72396;45.194;9.142;2024-03-06T03:04:18;0.77;;;0.50;;
79130;SDS011;72396;45.194;9.142;2024-03-06T03:06:43;0.30;;;0.30;;
79130;SDS011;72396;45.194;9.142;2024-03-06T03:09:09;0.30;;;0.30;;
79130;SDS011;72396;45.194;9.142;2024-03-06T03:11:36;0.70;;;0.32;;
79130;SDS011;72396;45.194;9.142;2024-03-06T03:14:02;1.63;;;0.70;;
79130;SDS011;72396;45.194;9.142;2024-03-06T03:16:28;0.63;;;0.32;;
79130;SDS011;72396;45.194;9.142;2024-03-06T03:18:54;0.73;;;0.50;;
79130;SDS011;72396;45.194;9.142;2024-03-06T03:21:20;1.33;;;0.50;;
79130;SDS011;72396;45.194;9.142;2024-03-06T03:23:46;1.92;;;0.57;;
79130;SDS011;72396;45.194;9.142;2024-03-06T03:26:12;0.45;;;0.30;;
79130;SDS011;72396;45.194;9.142;2024-03-06T03:28:38;0.20;;;0.20;;
79130;SDS011;72396;45.194;9.142;2024-03-06T03:31:05;0.45;;;0.30;;
79130;SDS011;72396;45.194;9.142;2024-03-06T03:33:34;0.90;;;0.40;;
79130;SDS011;72396;45.194;9.142;2024-03-06T03:36:03;0.45;;;0.30;;
79130;SDS011;72396;45.194;9.142;2024-03-06T03:38:29;0.95;;;0.40;;
79130;SDS011;72396;45.194;9.142;2024-03-06T03:40:55;0.80;;;0.40;;
79130;SDS011;72396;45.194;9.142;2024-03-06T03:43:20;1.00;;;0.47;;
79130;SDS011;72396;45.194;9.142;2024-03-06T03:45:46;1.15;;;0.40;;
79130;SDS011;72396;45.194;9.142;2024-03-06T03:48:11;0.47;;;0.30;;
79130;SDS011;72396;45.194;9.142;2024-03-06T03:50:37;0.90;;;0.40;;
79130;SDS011;72396;45.194;9.142;2024-03-06T03:53:02;0.57;;;0.40;;
79130;SDS011;72396;45.194;9.142;2024-03-06T03:55:29;0.35;;;0.20;;
79130;SDS011;72396;45.194;9.142;2024-03-06T03:57:54;1.13;;;0.55;;
79130;SDS011;72396;45.194;9.142;2024-03-06T04:00:19;0.45;;;0.20;;
79130;SDS011;72396;45.194;9.142;2024-03-06T04:02:45;1.13;;;0.55;;
79130;SDS011;72396;45.194;9.142;2024-03-06T04:05:10;0.77;;;0.43;;
79130;SDS011;72396;45.194;9.142;2024-03-06T04:07:36;1.05;;;0.50;;
79130;SDS011;72396;45.194;9.142;2024-03-06T04:10:02;0.30;;;0.20;;
79130;SDS011;72396;45.194;9.142;2024-03-06T04:12:28;0.20;;;0.20;;
79130;SDS011;72396;45.194;9.142;2024-03-06T04:14:54;0.55;;;0.45;;
79130;SDS011;72396;45.194;9.142;2024-03-06T04:17:19;0.75;;;0.35;;
79130;SDS011;72396;45.194;9.142;2024-03-06T04:19:44;0.30;;;0.30;;
79130;SDS011;72396;45.194;9.142;2024-03-06T04:22:10;0.73;;;0.30;;
79130;SDS011;72396;45.194;9.142;2024-03-06T04:24:35;0.45;;;0.32;;
79130;SDS011;72396;45.194;9.142;2024-03-06T04:27:01;0.65;;;0.40;;
79130;SDS011;72396;45.194;9.142;2024-03-06T04:29:26;0.70;;;0.47;;
79130;SDS011;72396;45.194;9.142;2024-03-06T04:31:51;0.88;;;0.40;;
79130;SDS011;72396;45.194;9.142;2024-03-06T04:34:17;1.63;;;0.40;;
79130;SDS011;72396;45.194;9.142;2024-03-06T04:36:42;0.55;;;0.40;;
79130;SDS011;72396;45.194;9.142;2024-03-06T04:39:07;1.33;;;0.43;;
79130;SDS011;72396;45.194;9.142;2024-03-06T04:41:33;0.45;;;0.45;;
79130;SDS011;72396;45.194;9.142;2024-03-06T04:43:59;0.68;;;0.43;;
79130;SDS011;72396;45.194;9.142;2024-03-06T04:46:26;0.52;;;0.40;;
79130;SDS011;72396;45.194;9.142;2024-03-06T04:48:53;0.50;;;0.40;;
79130;SDS011;72396;45.194;9.142;2024-03-06T04:51:18;0.90;;;0.57;;
79130;SDS011;72396;45.194;9.142;2024-03-06T04:53:47;1.15;;;0.43;;
79130;SDS011;72396;45.194;9.142;2024-03-06T04:56:13;1.48;;;0.60;;
79130;SDS011;72396;45.194;9.142;2024-03-06T04:58:38;1.15;;;0.50;;
79130;SDS011;72396;45.194;9.142;2024-03-06T05:01:05;0.65;;;0.30;;
79130;SDS011;72396;45.194;9.142;2024-03-06T05:03:30;0.63;;;0.45;;
79130;SDS011;72396;45.194;9.142;2024-03-06T05:05:55;1.00;;;0.60;;
79130;SDS011;72396;45.194;9.142;2024-03-06T05:08:21;1.02;;;0.60;;
79130;SDS011;72396;45.194;9.142;2024-03-06T05:10:46;1.35;;;0.75;;
79130;SDS011;72396;45.194;9.142;2024-03-06T05:13:11;1.10;;;0.60;;
79130;SDS011;72396;45.194;9.142;2024-03-06T05:15:37;1.65;;;0.70;;
79130;SDS011;72396;45.194;9.142;2024-03-06T05:18:04;2.55;;;0.77;;
79130;SDS011;72396;45.194;9.142;2024-03-06T05:20:29;0.88;;;0.70;;
79130;SDS011;72396;45.194;9.142;2024-03-06T05:22:56;1.30;;;0.63;;
79130;SDS011;72396;45.194;9.142;2024-03-06T05:25:21;1.45;;;0.80;;
79130;SDS011;72396;45.194;9.142;2024-03-06T05:27:47;1.42;;;0.70;;
79130;SDS011;72396;45.194;9.142;2024-03-06T05:30:12;1.58;;;0.80;;
79130;SDS011;72396;45.194;9.142;2024-03-06T05:32:38;2.85;;;0.80;;
79130;SDS011;72396;45.194;9.142;2024-03-06T05:35:03;0.93;;;0.50;;
79130;SDS011;72396;45.194;9.142;2024-03-06T05:37:29;1.63;;;0.65;;
79130;SDS011;72396;45.194;9.142;2024-03-06T05:39:54;1.38;;;0.70;;
79130;SDS011;72396;45.194;9.142;2024-03-06T05:42:20;0.95;;;0.63;;
79130;SDS011;72396;45.194;9.142;2024-03-06T05:44:45;0.77;;;0.60;;
79130;SDS011;72396;45.194;9.142;2024-03-06T05:47:13;1.40;;;0.75;;
79130;SDS011;72396;45.194;9.142;2024-03-06T05:49:39;1.58;;;0.80;;
79130;SDS011;72396;45.194;9.142;2024-03-06T05:52:04;1.55;;;0.80;;
79130;SDS011;72396;45.194;9.142;2024-03-06T05:54:29;1.70;;;0.80;;
79130;SDS011;72396;45.194;9.142;2024-03-06T05:56:58;1.45;;;0.88;;
79130;SDS011;72396;45.194;9.142;2024-03-06T05:59:24;2.25;;;0.93;;
79130;SDS011;72396;45.194;9.142;2024-03-06T06:01:49;2.05;;;1.20;;
79130;SDS011;72396;45.194;9.142;2024-03-06T06:04:15;1.77;;;0.90;;
79130;SDS011;72396;45.194;9.142;2024-03-06T06:06:40;1.67;;;0.90;;
79130;SDS011;72396;45.194;9.142;2024-03-06T06:09:06;1.63;;;0.90;;
79130;SDS011;72396;45.194;9.142;2024-03-06T06:11:32;3.22;;;1.00;;
79130;SDS011;72396;45.194;9.142;2024-03-06T06:14:01;2.50;;;0.88;;
79130;SDS011;72396;45.194;9.142;2024-03-06T06:16:26;2.10;;;0.95;;
79130;SDS011;72396;45.194;9.142;2024-03-06T06:18:51;2.38;;;0.90;;
79130;SDS011;72396;45.194;9.142;2024-03-06T06:21:17;2.10;;;1.05;;
79130;SDS011;72396;45.194;9.142;2024-03-06T06:23:43;1.55;;;0.80;;
79130;SDS011;72396;45.194;9.142;2024-03-06T06:26:09;2.22;;;1.08;;
79130;SDS011;72396;45.194;9.142;2024-03-06T06:28:35;2.45;;;1.23;;
79130;SDS011;72396;45.194;9.142;2024-03-06T06:31:02;2.30;;;1.00;;
79130;SDS011;72396;45.194;9.142;2024-03-06T06:33:29;1.95;;;1.00;;
79130;SDS011;72396;45.194;9.142;2024-03-06T06:35:54;2.42;;;1.00;;
79130;SDS011;72396;45.194;9.142;2024-03-06T06:38:20;2.40;;;1.13;;
79130;SDS011;72396;45.194;9.142;2024-03-06T06:40:45;1.90;;;0.90;;
79130;SDS011;72396;45.194;9.142;2024-03-06T06:43:10;2.63;;;0.80;;
79130;SDS011;72396;45.194;9.142;2024-03-06T06:45:36;2.22;;;1.00;;
79130;SDS011;72396;45.194;9.142;2024-03-06T06:48:03;1.95;;;1.02;;
79130;SDS011;72396;45.194;9.142;2024-03-06T06:50:28;1.63;;;0.85;;
79130;SDS011;72396;45.194;9.142;2024-03-06T06:52:53;1.73;;;1.00;;
79130;SDS011;72396;45.194;9.142;2024-03-06T06:55:19;1.83;;;0.98;;
79130;SDS011;72396;45.194;9.142;2024-03-06T06:57:47;2.08;;;1.10;;
79130;SDS011;72396;45.194;9.142;2024-03-06T07:00:13;2.50;;;1.08;;
79130;SDS011;72396;45.194;9.142;2024-03-06T07:02:41;2.33;;;1.20;;
79130;SDS011;72396;45.194;9.142;2024-03-06T07:05:07;2.17;;;1.02;;
79130;SDS011;72396;45.194;9.142;2024-03-06T07:07:34;2.92;;;1.10;;
79130;SDS011;72396;45.194;9.142;2024-03-06T07:10:00;1.80;;;0.90;;
79130;SDS011;72396;45.194;9.142;2024-03-06T07:12:26;2.15;;;0.90;;
79130;SDS011;72396;45.194;9.142;2024-03-06T07:14:51;1.90;;;0.80;;
79130;SDS011;72396;45.194;9.142;2024-03-06T07:17:16;1.77;;;0.85;;
79130;SDS011;72396;45.194;9.142;2024-03-06T07:19:41;0.98;;;0.60;;
79130;SDS011;72396;45.194;9.142;2024-03-06T07:22:07;1.33;;;0.65;;
79130;SDS011;72396;45.194;9.142;2024-03-06T07:24:32;1.92;;;0.60;;
79130;SDS011;72396;45.194;9.142;2024-03-06T07:26:57;1.20;;;0.60;;
79130;SDS011;72396;45.194;9.142;2024-03-06T07:29:23;23.65;;;4.85;;
79130;SDS011;72396;45.194;9.142;2024-03-06T07:31:48;0.85;;;0.40;;
79130;SDS011;72396;45.194;9.142;2024-03-06T07:34:14;1.40;;;0.63;;
79130;SDS011;72396;45.194;9.142;2024-03-06T07:36:43;1.27;;;0.60;;
79130;SDS011;72396;45.194;9.142;2024-03-06T07:39:08;1.55;;;0.70;;
79130;SDS011;72396;45.194;9.142;2024-03-06T07:41:33;0.90;;;0.50;;
79130;SDS011;72396;45.194;9.142;2024-03-06T07:43:59;0.68;;;0.45;;
79130;SDS011;72396;45.194;9.142;2024-03-06T07:46:25;0.70;;;0.50;;
79130;SDS011;72396;45.194;9.142;2024-03-06T07:48:50;0.80;;;0.45;;
79130;SDS011;72396;45.194;9.142;2024-03-06T07:51:16;0.85;;;0.50;;
79130;SDS011;72396;45.194;9.142;2024-03-06T07:53:42;0.60;;;0.40;;
79130;SDS011;72396;45.194;9.142;2024-03-06T07:56:09;0.20;;;0.20;;
79130;SDS011;72396;45.194;9.142;2024-03-06T07:58:36;0.68;;;0.50;;
79130;SDS011;72396;45.194;9.142;2024-03-06T08:01:02;1.33;;;0.40;;
79130;SDS011;72396;45.194;9.142;2024-03-06T08:03:28;0.90;;;0.50;;
79130;SDS011;72396;45.194;9.142;2024-03-06T08:05:53;1.17;;;0.50;;
79130;SDS011;72396;45.194;9.142;2024-03-06T08:08:19;0.77;;;0.45;;
79130;SDS011;72396;45.194;9.142;2024-03-06T08:10:44;0.52;;;0.32;;
79130;SDS011;72396;45.194;9.142;2024-03-06T08:13:10;0.38;;;0.38;;
79130;SDS011;72396;45.194;9.142;2024-03-06T08:15:36;0.85;;;0.40;;
79130;SDS011;72396;45.194;9.142;2024-03-06T08:18:04;1.15;;;0.52;;
79130;SDS011;72396;45.194;9.142;2024-03-06T08:20:29;1.77;;;0.50;;
79130;SDS011;72396;45.194;9.142;2024-03-06T08:22:55;1.92;;;0.60;;
79130;SDS011;72396;45.194;9.142;2024-03-06T08:25:21;0.40;;;0.40;;
79130;SDS011;72396;45.194;9.142;2024-03-06T08:27:47;1.40;;;0.60;;
79130;SDS011;72396;45.194;9.142;2024-03-06T08:30:12;3.38;;;0.60;;
79130;SDS011;72396;45.194;9.142;2024-03-06T08:32:38;1.15;;;0.57;;
79130;SDS011;72396;45.194;9.142;2024-03-06T08:35:04;1.00;;;0.60;;
79130;SDS011;72396;45.194;9.142;2024-03-06T08:37:31;1.45;;;0.80;;
79130;SDS011;72396;45.194;9.142;2024-03-06T08:39:58;1.00;;;0.70;;
79130;SDS011;72396;45.194;9.142;2024-03-06T08:42:24;1.70;;;0.80;;
79130;SDS011;72396;45.194;9.142;2024-03-06T08:44:50;0.90;;;0.60;;
79130;SDS011;72396;45.194;9.142;2024-03-06T08:47:15;1.45;;;0.75;;
79130;SDS011;72396;45.194;9.142;2024-03-06T08:49:41;1.42;;;0.80;;
79130;SDS011;72396;45.194;9.142;2024-03-06T08:52:06;0.95;;;0.70;;
79130;SDS011;72396;45.194;9.142;2024-03-06T08:54:32;1.45;;;0.80;;
79130;SDS011;72396;45.194;9.142;2024-03-06T08:56:57;1.45;;;0.70;;
79130;SDS011;72396;45.194;9.142;2024-03-06T08:59:24;1.65;;;0.63;;
79130;SDS011;72396;45.194;9.142;2024-03-06T09:01:53;1.63;;;0.70;;
79130;SDS011;72396;45.194;9.142;2024-03-06T09:04:19;2.67;;;0.90;;
79130;SDS011;72396;45.194;9.142;2024-03-06T09:06:45;1.92;;;1.45;;
79130;SDS011;72396;45.194;9.142;2024-03-06T09:09:10;1.58;;;0.80;;
79130;SDS011;72396;45.194;9.142;2024-03-06T09:11:35;2.88;;;1.00;;
79130;SDS011;72396;45.194;9.142;2024-03-06T09:14:01;2.45;;;1.20;;
79130;SDS011;72396;45.194;9.142;2024-03-06T09:16:26;2.08;;;1.08;;
79130;SDS011;72396;45.194;9.142;2024-03-06T09:18:52;2.88;;;1.30;;
79130;SDS011;72396;45.194;9.142;2024-03-06T09:21:18;2.65;;;1.20;;
79130;SDS011;72396;45.194;9.142;2024-03-06T09:23:44;3.92;;;1.35;;
79130;SDS011;72396;45.194;9.142;2024-03-06T09:26:10;2.88;;;1.35;;
79130;SDS011;72396;45.194;9.142;2024-03-06T09:28:35;3.35;;;1.40;;
79130;SDS011;72396;45.194;9.142;2024-03-06T09:31:01;3.33;;;1.95;;
79130;SDS011;72396;45.194;9.142;2024-03-06T09:33:26;3.55;;;1.80;;
79130;SDS011;72396;45.194;9.142;2024-03-06T09:35:51;3.05;;;2.00;;
79130;SDS011;72396;45.194;9.142;2024-03-06T09:38:17;3.47;;;1.90;;
79130;SDS011;72396;45.194;9.142;2024-03-06T09:40:42;3.95;;;1.98;;
79130;SDS011;72396;45.194;9.142;2024-03-06T09:43:08;3.90;;;1.85;;
79130;SDS011;72396;45.194;9.142;2024-03-06T09:45:34;4.43;;;1.92;;
79130;SDS011;72396;45.194;9.142;2024-03-06T09:48:00;3.17;;;1.83;;
79130;SDS011;72396;45.194;9.142;2024-03-06T09:50:26;4.30;;;1.80;;
79130;SDS011;72396;45.194;9.142;2024-03-06T09:52:54;3.10;;;1.77;;
79130;SDS011;72396;45.194;9.142;2024-03-06T09:55:21;3.50;;;1.77;;
79130;SDS011;72396;45.194;9.142;2024-03-06T09:57:46;4.15;;;2.22;;
79130;SDS011;72396;45.194;9.142;2024-03-06T10:00:13;4.60;;;2.10;;
79130;SDS011;72396;45.194;9.142;2024-03-06T10:02:45;3.45;;;1.90;;
79130;SDS011;72396;45.194;9.142;2024-03-06T10:05:22;4.00;;;1.80;;
79130;SDS011;72396;45.194;9.142;2024-03-06T10:07:49;3.65;;;2.05;;
79130;SDS011;72396;45.194;9.142;2024-03-06T10:10:16;3.83;;;2.13;;
79130;SDS011;72396;45.194;9.142;2024-03-06T10:12:42;3.42;;;1.92;;
79130;SDS011;72396;45.194;9.142;2024-03-06T10:15:09;4.95;;;2.53;;
79130;SDS011;72396;45.194;9.142;2024-03-06T10:17:37;4.43;;;2.40;;
79130;SDS011;72396;45.194;9.142;2024-03-06T10:20:16;4.53;;;2.38;;
79130;SDS011;72396;45.194;9.142;2024-03-06T10:22:44;4.32;;;2.58;;
79130;SDS011;72396;45.194;9.142;2024-03-06T10:25:12;4.38;;;2.45;;
79130;SDS011;72396;45.194;9.142;2024-03-06T10:27:37;3.67;;;2.42;;
79130;SDS011;72396;45.194;9.142;2024-03-06T10:30:03;4.40;;;2.85;;
79130;SDS011;72396;45.194;9.142;2024-03-06T10:32:32;5.43;;;2.60;;
79130;SDS011;72396;45.194;9.142;2024-03-06T10:34:57;4.05;;;2.58;;
79130;SDS011;72396;45.194;9.142;2024-03-06T10:37:23;4.60;;;2.42;;
79130;SDS011;72396;45.194;9.142;2024-03-06T10:39:50;4.63;;;2.60;;
79130;SDS011;72396;45.194;9.142;2024-03-06T10:42:19;4.57;;;2.60;;
79130;SDS011;72396;45.194;9.142;2024-03-06T10:44:51;6.60;;;2.45;;
79130;SDS011;72396;45.194;9.142;2024-03-06T10:47:18;4.28;;;2.13;;
79130;SDS011;72396;45.194;9.142;2024-03-06T10:49:44;4.68;;;2.20;;
79130;SDS011;72396;45.194;9.142;2024-03-06T10:52:11;3.78;;;1.95;;
79130;SDS011;72396;45.194;9.142;2024-03-06T10:54:37;3.72;;;1.88;;
79130;SDS011;72396;45.194;9.142;2024-03-06T10:57:07;4.78;;;2.22;;
79130;SDS011;72396;45.194;9.142;2024-03-06T10:59:35;4.80;;;2.42;;
79130;SDS011;72396;45.194;9.142;2024-03-06T11:02:00;4.57;;;2.60;;
79130;SDS011;72396;45.194;9.142;2024-03-06T11:04:26;6.25;;;3.55;;
79130;SDS011;72396;45.194;9.142;2024-03-06T11:06:59;4.75;;;2.25;;
79130;SDS011;72396;45.194;9.142;2024-03-06T11:09:34;6.85;;;2.72;;
79130;SDS011;72396;45.194;9.142;2024-03-06T11:12:00;4.22;;;2.33;;
79130;SDS011;72396;45.194;9.142;2024-03-06T11:14:27;5.55;;;2.83;;
79130;SDS011;72396;45.194;9.142;2024-03-06T11:17:00;5.65;;;2.92;;
79130;SDS011;72396;45.194;9.142;2024-03-06T11:19:26;5.20;;;2.90;;
79130;SDS011;72396;45.194;9.142;2024-03-06T11:21:52;6.43;;;3.05;;
79130;SDS011;72396;45.194;9.142;2024-03-06T11:24:19;5.72;;;3.35;;
79130;SDS011;72396;45.194;9.142;2024-03-06T11:32:35;7.38;;;4.35;;
79130;SDS011;72396;45.194;9.142;2024-03-06T11:35:02;8.23;;;4.88;;
79130;SDS011;72396;45.194;9.142;2024-03-06T11:37:29;8.20;;;5.03;;
79130;SDS011;72396;45.194;9.142;2024-03-06T11:39:59;10.07;;;4.80;;
79130;SDS011;72396;45.194;9.142;2024-03-06T11:42:34;6.45;;;4.18;;
79130;SDS011;72396;45.194;9.142;2024-03-06T11:45:15;8.27;;;4.28;;
79130;SDS011;72396;45.194;9.142;2024-03-06T11:50:23;7.28;;;4.30;;
79130;SDS011;72396;45.194;9.142;2024-03-06T11:52:49;8.00;;;4.32;;
79130;SDS011;72396;45.194;9.142;2024-03-06T11:55:16;7.57;;;4.38;;
79130;SDS011;72396;45.194;9.142;2024-03-06T11:57:41;7.50;;;4.43;;
79130;SDS011;72396;45.194;9.142;2024-03-06T12:00:07;7.15;;;4.75;;
79130;SDS011;72396;45.194;9.142;2024-03-06T12:02:36;9.88;;;4.95;;
79130;SDS011;72396;45.194;9.142;2024-03-06T12:05:02;8.05;;;5.00;;
79130;SDS011;72396;45.194;9.142;2024-03-06T12:07:28;8.32;;;4.68;;
79130;SDS011;72396;45.194;9.142;2024-03-06T12:09:53;7.32;;;4.88;;
79130;SDS011;72396;45.194;9.142;2024-03-06T12:12:18;8.02;;;4.72;;
79130;SDS011;72396;45.194;9.142;2024-03-06T12:14:44;9.05;;;4.93;;
79130;SDS011;72396;45.194;9.142;2024-03-06T12:17:23;9.35;;;4.85;;
79130;SDS011;72396;45.194;9.142;2024-03-06T12:19:48;8.43;;;4.75;;
79130;SDS011;72396;45.194;9.142;2024-03-06T12:22:14;10.13;;;5.00;;
79130;SDS011;72396;45.194;9.142;2024-03-06T12:24:40;8.07;;;4.68;;
79130;SDS011;72396;45.194;9.142;2024-03-06T12:27:06;6.78;;;4.43;;
79130;SDS011;72396;45.194;9.142;2024-03-06T12:29:34;7.38;;;4.43;;
79130;SDS011;72396;45.194;9.142;2024-03-06T12:32:00;7.60;;;4.30;;
79130;SDS011;72396;45.194;9.142;2024-03-06T12:34:29;8.48;;;5.07;;
79130;SDS011;72396;45.194;9.142;2024-03-06T12:36:56;9.50;;;5.00;;
79130;SDS011;72396;45.194;9.142;2024-03-06T12:39:22;9.07;;;5.00;;
79130;SDS011;72396;45.194;9.142;2024-03-06T12:41:51;8.90;;;4.93;;
79130;SDS011;72396;45.194;9.142;2024-03-06T12:44:18;7.57;;;5.28;;
79130;SDS011;72396;45.194;9.142;2024-03-06T12:46:44;13.60;;;5.40;;
79130;SDS011;72396;45.194;9.142;2024-03-06T12:49:10;12.13;;;5.10;;
79130;SDS011;72396;45.194;9.142;2024-03-06T12:51:35;9.48;;;5.35;;
79130;SDS011;72396;45.194;9.142;2024-03-06T12:54:00;8.00;;;5.05;;
79130;SDS011;72396;45.194;9.142;2024-03-06T12:56:26;9.32;;;5.65;;
79130;SDS011;72396;45.194;9.142;2024-03-06T12:58:51;11.52;;;5.50;;
79130;SDS011;72396;45.194;9.142;2024-03-06T13:01:17;7.15;;;5.10;;
79130;SDS011;72396;45.194;9.142;2024-03-06T13:03:42;9.27;;;5.65;;
79130;SDS011;72396;45.194;9.142;2024-03-06T13:06:08;8.32;;;5.72;;
79130;SDS011;72396;45.194;9.142;2024-03-06T13:08:34;7.03;;;5.18;;
79130;SDS011;72396;45.194;9.142;2024-03-06T13:10:59;8.90;;;5.30;;
79130;SDS011;72396;45.194;9.142;2024-03-06T13:13:25;16.23;;;6.80;;
79130;SDS011;72396;45.194;9.142;2024-03-06T13:15:50;9.68;;;5.90;;
79130;SDS011;72396;45.194;9.142;2024-03-06T13:18:16;10.02;;;5.70;;
79130;SDS011;72396;45.194;9.142;2024-03-06T13:20:42;10.80;;;5.35;;
79130;SDS011;72396;45.194;9.142;2024-03-06T13:23:09;11.90;;;6.15;;
79130;SDS011;72396;45.194;9.142;2024-03-06T13:25:34;9.77;;;6.25;;
79130;SDS011;72396;45.194;9.142;2024-03-06T13:28:00;9.40;;;6.88;;
79130;SDS011;72396;45.194;9.142;2024-03-06T13:30:26;11.15;;;6.50;;
79130;SDS011;72396;45.194;9.142;2024-03-06T13:32:51;12.35;;;5.97;;
79130;SDS011;72396;45.194;9.142;2024-03-06T13:35:16;8.18;;;4.43;;
79130;SDS011;72396;45.194;9.142;2024-03-06T13:37:45;6.75;;;3.17;;
79130;SDS011;72396;45.194;9.142;2024-03-06T13:40:11;3.42;;;1.80;;
79130;SDS011;72396;45.194;9.142;2024-03-06T13:42:38;4.35;;;1.60;;
79130;SDS011;72396;45.194;9.142;2024-03-06T13:45:05;3.00;;;1.23;;
79130;SDS011;72396;45.194;9.142;2024-03-06T13:47:35;5.53;;;1.42;;
79130;SDS011;72396;45.194;9.142;2024-03-06T13:50:00;4.15;;;1.20;;
79130;SDS011;72396;45.194;9.142;2024-03-06T13:52:26;3.08;;;1.00;;
79130;SDS011;72396;45.194;9.142;2024-03-06T13:54:51;3.03;;;1.30;;
79130;SDS011;72396;45.194;9.142;2024-03-06T13:57:17;3.35;;;1.17;;
79130;SDS011;72396;45.194;9.142;2024-03-06T13:59:42;2.97;;;1.20;;
79130;SDS011;72396;45.194;9.142;2024-03-06T14:02:07;2.40;;;1.08;;
79130;SDS011;72396;45.194;9.142;2024-03-06T14:04:33;1.95;;;0.90;;
79130;SDS011;72396;45.194;9.142;2024-03-06T14:06:58;2.45;;;0.95;;
79130;SDS011;72396;45.194;9.142;2024-03-06T14:09:24;2.15;;;0.80;;
79130;SDS011;72396;45.194;9.142;2024-03-06T14:11:50;1.35;;;0.70;;
79130;SDS011;72396;45.194;9.142;2024-03-06T14:14:17;1.80;;;0.70;;
79130;SDS011;72396;45.194;9.142;2024-03-06T14:16:43;1.98;;;0.90;;
79130;SDS011;72396;45.194;9.142;2024-03-06T14:19:09;2.08;;;0.88;;
79130;SDS011;72396;45.194;9.142;2024-03-06T14:21:34;2.25;;;0.70;;
79130;SDS011;72396;45.194;9.142;2024-03-06T14:24:03;1.60;;;0.75;;
79130;SDS011;72396;45.194;9.142;2024-03-06T14:26:29;2.72;;;0.90;;
79130;SDS011;72396;45.194;9.142;2024-03-06T14:28:55;1.13;;;0.63;;
79130;SDS011;72396;45.194;9.142;2024-03-06T14:31:20;1.30;;;0.52;;
79130;SDS011;72396;45.194;9.142;2024-03-06T14:33:45;1.88;;;0.70;;
79130;SDS011;72396;45.194;9.142;2024-03-06T14:36:11;1.58;;;0.77;;
79130;SDS011;72396;45.194;9.142;2024-03-06T14:38:37;1.85;;;0.90;;
79130;SDS011;72396;45.194;9.142;2024-03-06T14:41:03;1.05;;;0.63;;
79130;SDS011;72396;45.194;9.142;2024-03-06T14:43:31;2.78;;;0.80;;
79130;SDS011;72396;45.194;9.142;2024-03-06T14:45:59;1.63;;;0.90;;
79130;SDS011;72396;45.194;9.142;2024-03-06T14:48:25;1.70;;;0.85;;
79130;SDS011;72396;45.194;9.142;2024-03-06T14:50:50;2.25;;;1.00;;